createdAt,value
2018-06-22T00:00:57.138Z,72.20
2018-06-22T00:01:57.083Z,71.15
2018-06-22T00:02:57.077Z,71.15
2018-06-22T00:03:57.075Z,71.92
2018-06-22T00:04:57.068Z,71.44
2018-06-22T00:05:57.069Z,71.25
2018-06-22T00:06:57.063Z,72.20
2018-06-22T00:07:57.058Z,71.92
2018-06-22T00:08:57.054Z,72.20
2018-06-22T00:09:57.050Z,72.49
2018-06-22T00:10:57.050Z,72.39
2018-06-22T00:11:57.044Z,72.30
2018-06-22T00:12:57.039Z,72.49
2018-06-22T00:13:57.037Z,72.39
2018-06-22T00:14:57.030Z,73.44
2018-06-22T00:15:57.027Z,73.83
2018-06-22T00:16:57.022Z,74.02
2018-06-22T00:17:57.020Z,73.22
2018-06-22T00:18:57.020Z,73.12
2018-06-22T00:19:57.014Z,73.60
2018-06-22T00:20:57.009Z,73.88
2018-06-22T00:21:57.005Z,73.79
2018-06-22T00:22:57.001Z,73.88
2018-06-22T00:23:56.996Z,74.21
2018-06-22T00:24:56.992Z,74.40
2018-06-22T00:25:56.988Z,74.17
2018-06-22T00:26:56.985Z,73.98
2018-06-22T00:27:56.988Z,73.88
2018-06-22T00:28:56.977Z,73.83
2018-06-22T00:29:56.972Z,74.11
2018-06-22T00:30:56.969Z,73.92
2018-06-22T00:31:56.964Z,73.73
2018-06-22T00:32:56.961Z,74.21
2018-06-22T00:33:56.955Z,73.73
2018-06-22T00:34:56.952Z,72.97
2018-06-22T00:35:56.948Z,72.97
2018-06-22T00:36:56.942Z,73.16
2018-06-22T00:37:56.939Z,73.83
2018-06-22T00:38:56.935Z,74.30
2018-06-22T00:39:56.931Z,74.69
2018-06-22T00:40:56.929Z,74.40
2018-06-22T00:41:56.924Z,73.79
2018-06-22T00:42:56.915Z,74.27
2018-06-22T00:43:56.915Z,74.55
2018-06-22T00:44:56.909Z,74.84
2018-06-22T00:45:56.909Z,74.17
2018-06-22T00:46:56.910Z,74.27
2018-06-22T00:47:56.899Z,74.84
2018-06-22T00:48:56.892Z,74.74
2018-06-22T00:49:56.889Z,75.32
2018-06-22T00:50:56.887Z,75.13
2018-06-22T00:51:56.881Z,76.18
2018-06-22T00:52:56.876Z,76.75
2018-06-22T00:53:56.886Z,76.27
2018-06-22T00:54:56.871Z,76.46
2018-06-22T00:55:56.866Z,76.56
2018-06-22T00:56:56.866Z,76.37
2018-06-22T00:57:56.857Z,76.94
2018-06-22T00:58:56.857Z,76.23
2018-06-22T00:59:56.852Z,76.75
2018-06-22T01:00:56.844Z,76.81
2018-06-22T01:01:56.842Z,76.81
2018-06-22T01:02:56.839Z,76.90
2018-06-22T01:03:56.839Z,76.71
2018-06-22T01:04:56.831Z,77.38
2018-06-22T01:05:56.826Z,77.00
2018-06-22T01:06:56.822Z,76.90
2018-06-22T01:07:56.820Z,77.95
2018-06-22T01:08:56.816Z,77.00
2018-06-22T01:09:56.811Z,77.32
2018-06-22T01:10:56.803Z,77.67
2018-06-22T01:11:56.806Z,78.14
2018-06-22T01:12:56.800Z,78.62
2018-06-22T01:13:56.794Z,78.33
2018-06-22T01:14:56.791Z,77.86
2018-06-22T01:15:56.792Z,77.86
2018-06-22T01:16:56.784Z,77.57
2018-06-22T01:17:56.781Z,77.61
2018-06-22T01:18:56.775Z,78.33
2018-06-22T01:19:56.772Z,78.62
2018-06-22T01:20:56.768Z,78.09
2018-06-22T01:21:56.764Z,78.14
2018-06-22T01:22:56.760Z,77.80
2018-06-22T01:23:56.755Z,77.76
2018-06-22T01:24:56.751Z,77.57
2018-06-22T01:25:56.746Z,78.05
2018-06-22T01:26:56.744Z,77.76
2018-06-22T01:27:56.736Z,77.47
2018-06-22T01:28:56.733Z,77.76
2018-06-22T01:29:56.734Z,78.33
2018-06-22T01:30:56.724Z,77.95
2018-06-22T01:31:56.722Z,78.23
2018-06-22T01:32:56.715Z,79.10
2018-06-22T01:33:56.715Z,79.00
2018-06-22T01:34:56.708Z,79.19
2018-06-22T01:35:56.704Z,79.86
2018-06-22T01:36:56.701Z,79.10
2018-06-22T01:37:56.696Z,79.19
2018-06-22T01:38:56.692Z,79.19
2018-06-22T01:39:56.689Z,78.81
2018-06-22T01:40:56.681Z,79.57
2018-06-22T01:41:56.677Z,80.15
2018-06-22T01:42:56.672Z,79.77
2018-06-22T01:43:56.669Z,79.38
2018-06-22T01:44:56.663Z,79.48
2018-06-22T01:45:56.662Z,79.86
2018-06-22T01:46:56.656Z,79.28
2018-06-22T01:47:56.654Z,79.57
2018-06-22T01:48:56.647Z,80.24
2018-06-22T01:49:56.644Z,80.43
2018-06-22T01:50:56.639Z,79.77
2018-06-22T01:51:56.640Z,80.05
2018-06-22T01:52:56.631Z,79.86
2018-06-22T01:53:56.628Z,79.77
2018-06-22T01:54:56.622Z,80.01
2018-06-22T01:55:56.618Z,79.44
2018-06-22T01:56:56.614Z,79.25
2018-06-22T01:57:56.609Z,78.96
2018-06-22T01:58:56.605Z,79.06
2018-06-22T01:59:56.601Z,78.23
2018-06-22T02:00:56.596Z,78.05
2018-06-22T02:01:56.592Z,77.76
2018-06-22T02:02:56.587Z,77.44
2018-06-22T02:03:56.585Z,77.06
2018-06-22T02:04:56.580Z,77.34
2018-06-22T02:05:56.704Z,77.19
2018-06-22T02:06:56.569Z,77.19
2018-06-22T02:07:56.564Z,77.38
2018-06-22T02:08:56.559Z,77.44
2018-06-22T02:09:56.555Z,77.95
2018-06-22T02:10:56.556Z,77.72
2018-06-22T02:11:56.545Z,78.62
2018-06-22T02:12:56.538Z,78.01
2018-06-22T02:13:56.536Z,77.91
2018-06-22T02:14:56.536Z,77.82
2018-06-22T02:15:56.526Z,77.53
2018-06-22T02:16:56.520Z,77.72
2018-06-22T02:17:56.516Z,77.72
2018-06-22T02:18:56.561Z,78.30
2018-06-22T02:19:56.509Z,78.30
2018-06-22T02:20:56.500Z,78.20
2018-06-22T02:21:56.495Z,78.01
2018-06-22T02:22:56.491Z,78.67
2018-06-22T02:23:56.487Z,78.96
2018-06-22T02:24:56.478Z,78.67
2018-06-22T02:25:56.476Z,78.96
2018-06-22T02:26:56.472Z,78.86
2018-06-22T02:27:56.465Z,78.77
2018-06-22T02:28:56.459Z,78.77
2018-06-22T02:29:56.455Z,79.44
2018-06-22T02:30:56.449Z,78.96
2018-06-22T02:31:56.444Z,78.86
2018-06-22T02:32:56.440Z,78.67
2018-06-22T02:33:56.434Z,78.01
2018-06-22T02:34:56.439Z,78.39
2018-06-22T02:35:56.426Z,78.30
2018-06-22T02:36:56.422Z,79.15
2018-06-22T02:37:56.413Z,79.44
2018-06-22T02:38:56.413Z,79.25
2018-06-22T02:39:56.404Z,79.44
2018-06-22T02:40:56.397Z,79.63
2018-06-22T02:41:56.394Z,79.53
2018-06-22T02:42:56.389Z,79.72
2018-06-22T02:43:56.387Z,78.96
2018-06-22T02:44:56.380Z,79.44
2018-06-22T02:45:56.374Z,80.30
2018-06-22T02:46:56.368Z,79.35
2018-06-22T02:47:56.362Z,80.11
2018-06-22T02:48:56.349Z,79.72
2018-06-22T02:49:56.354Z,79.72
2018-06-22T02:50:56.347Z,79.82
2018-06-22T02:51:56.342Z,80.49
2018-06-22T02:52:56.338Z,80.68
2018-06-22T02:53:56.330Z,80.49
2018-06-22T02:54:56.331Z,80.96
2018-06-22T02:55:56.322Z,81.06
2018-06-22T02:56:56.328Z,80.77
2018-06-22T02:57:56.312Z,80.77
2018-06-22T02:58:56.309Z,80.49
2018-06-22T02:59:56.343Z,80.77
2018-06-22T03:00:56.300Z,80.49
2018-06-22T03:01:56.291Z,80.39
2018-06-22T03:02:56.287Z,80.58
2018-06-22T03:03:56.282Z,80.87
2018-06-22T03:04:56.276Z,80.87
2018-06-22T03:05:56.270Z,80.68
2018-06-22T03:06:56.268Z,80.96
2018-06-22T03:07:56.263Z,80.87
2018-06-22T03:08:56.261Z,80.87
2018-06-22T03:09:56.252Z,80.68
2018-06-22T03:10:56.245Z,80.87
2018-06-22T03:11:56.252Z,80.77
2018-06-22T03:12:56.236Z,80.87
2018-06-22T03:13:56.233Z,80.39
2018-06-22T03:14:56.225Z,80.96
2018-06-22T03:15:56.220Z,80.58
2018-06-22T03:16:56.215Z,80.68
2018-06-22T03:17:56.209Z,81.15
2018-06-22T03:18:56.205Z,81.12
2018-06-22T03:19:56.201Z,81.44
2018-06-22T03:20:56.193Z,81.06
2018-06-22T03:21:56.187Z,81.25
2018-06-22T03:22:56.183Z,81.35
2018-06-22T03:23:56.178Z,81.35
2018-06-22T03:24:56.173Z,81.68
2018-06-22T03:25:56.168Z,81.49
2018-06-22T03:26:56.163Z,81.88
2018-06-22T03:27:56.157Z,82.83
2018-06-22T03:28:56.156Z,82.73
2018-06-22T03:29:56.148Z,82.73
2018-06-22T03:30:56.141Z,82.73
2018-06-22T03:31:56.171Z,82.35
2018-06-22T03:32:56.132Z,82.45
2018-06-22T03:33:56.126Z,83.21
2018-06-22T03:34:56.121Z,83.40
2018-06-22T03:35:56.117Z,83.02
2018-06-22T03:36:56.115Z,83.12
2018-06-22T03:37:56.110Z,83.21
2018-06-22T03:38:56.102Z,83.31
2018-06-22T03:39:56.096Z,83.40
2018-06-22T03:40:56.091Z,82.83
2018-06-22T03:41:56.088Z,83.59
2018-06-22T03:42:56.080Z,83.88
2018-06-22T03:43:56.074Z,83.59
2018-06-22T03:44:56.071Z,83.78
2018-06-22T03:45:56.064Z,83.59
2018-06-22T03:46:56.061Z,83.78
2018-06-22T03:47:56.055Z,83.69
2018-06-22T03:48:56.050Z,83.50
2018-06-22T03:49:56.044Z,84.26
2018-06-22T03:50:56.036Z,83.78
2018-06-22T03:51:56.036Z,83.88
2018-06-22T03:52:56.027Z,84.36
2018-06-22T03:53:56.025Z,84.45
2018-06-22T03:54:56.021Z,84.64
2018-06-22T03:55:56.015Z,84.16
2018-06-22T03:56:56.006Z,83.78
2018-06-22T03:57:56.001Z,83.59
2018-06-22T03:58:55.996Z,83.88
2018-06-22T03:59:55.989Z,83.59
2018-06-22T04:00:55.987Z,83.69
2018-06-22T04:01:55.982Z,83.59
2018-06-22T04:02:55.977Z,84.26
2018-06-22T04:03:55.978Z,84.74
2018-06-22T04:04:55.963Z,84.55
2018-06-22T04:05:55.958Z,84.64
2018-06-22T04:06:55.955Z,85.02
2018-06-22T04:07:55.952Z,84.55
2018-06-22T04:08:55.998Z,85.12
2018-06-22T04:09:55.938Z,85.41
2018-06-22T04:10:55.931Z,85.31
2018-06-22T04:11:55.929Z,85.50
2018-06-22T04:12:55.922Z,86.26
2018-06-22T04:13:55.921Z,85.31
2018-06-22T04:14:55.913Z,85.41
2018-06-22T04:15:55.908Z,85.50
2018-06-22T04:16:55.907Z,85.21
2018-06-22T04:17:55.896Z,85.50
2018-06-22T04:18:55.900Z,85.60
2018-06-22T04:19:55.884Z,85.31
2018-06-22T04:20:55.908Z,85.02
2018-06-22T04:21:55.877Z,84.26
2018-06-22T04:22:55.871Z,84.74
2018-06-22T04:23:55.864Z,84.64
2018-06-22T04:24:55.859Z,85.21
2018-06-22T04:25:55.856Z,84.26
2018-06-22T04:26:55.851Z,84.26
2018-06-22T04:27:55.852Z,84.11
2018-06-22T04:28:55.840Z,84.30
2018-06-22T04:29:55.833Z,83.83
2018-06-22T04:30:55.831Z,83.83
2018-06-22T04:31:55.826Z,83.44
2018-06-22T04:32:55.818Z,83.73
2018-06-22T04:33:55.817Z,83.64
2018-06-22T04:34:55.808Z,83.54
2018-06-22T04:35:55.803Z,83.44
2018-06-22T04:36:55.804Z,83.25
2018-06-22T04:37:55.791Z,83.54
2018-06-22T04:38:55.789Z,82.97
2018-06-22T04:39:55.782Z,83.16
2018-06-22T04:40:55.780Z,83.06
2018-06-22T04:41:55.775Z,83.06
2018-06-22T04:42:55.770Z,82.68
2018-06-22T04:43:55.763Z,83.35
2018-06-22T04:44:55.756Z,83.35
2018-06-22T04:45:55.754Z,83.35
2018-06-22T04:46:55.750Z,82.49
2018-06-22T04:47:55.743Z,83.06
2018-06-22T04:48:55.738Z,82.97
2018-06-22T04:49:55.730Z,83.25
2018-06-22T04:50:55.727Z,83.16
2018-06-22T04:51:55.724Z,83.06
2018-06-22T04:52:55.717Z,82.87
2018-06-22T04:53:55.715Z,83.83
2018-06-22T04:54:55.710Z,83.73
2018-06-22T04:55:55.708Z,83.16
2018-06-22T04:56:55.698Z,82.87
2018-06-22T04:57:55.692Z,83.06
2018-06-22T04:58:55.689Z,83.16
2018-06-22T04:59:55.683Z,84.11
2018-06-22T05:00:55.677Z,83.16
2018-06-22T05:01:55.672Z,82.59
2018-06-22T05:02:55.669Z,83.06
2018-06-22T05:03:55.667Z,83.25
2018-06-22T05:04:55.657Z,82.97
2018-06-22T05:05:55.652Z,82.20
2018-06-22T05:06:55.648Z,81.92
2018-06-22T05:07:55.644Z,81.73
2018-06-22T05:08:55.639Z,81.63
2018-06-22T05:09:55.634Z,82.01
2018-06-22T05:10:55.630Z,82.49
2018-06-22T05:11:55.626Z,82.68
2018-06-22T05:12:55.619Z,82.49
2018-06-22T05:13:55.613Z,83.25
2018-06-22T05:14:55.609Z,83.16
2018-06-22T05:15:55.607Z,83.25
2018-06-22T05:16:55.599Z,83.92
2018-06-22T05:17:55.598Z,83.35
2018-06-22T05:18:55.590Z,82.97
2018-06-22T05:19:55.587Z,82.82
2018-06-22T05:20:55.581Z,82.72
2018-06-22T05:21:55.579Z,82.53
2018-06-22T05:22:55.597Z,81.96
2018-06-22T05:23:55.572Z,81.77
2018-06-22T05:24:55.642Z,81.48
2018-06-22T05:25:55.557Z,81.38
2018-06-22T05:26:55.568Z,80.33
2018-06-22T05:27:55.548Z,80.66
2018-06-22T05:28:55.544Z,80.38
2018-06-22T05:29:55.540Z,80.19
2018-06-22T05:30:55.535Z,79.71
2018-06-22T05:31:55.532Z,80.57
2018-06-22T05:32:55.523Z,79.99
2018-06-22T05:33:55.520Z,80.19
2018-06-22T05:34:55.515Z,79.90
2018-06-22T05:35:55.589Z,79.23
2018-06-22T05:36:55.506Z,79.14
2018-06-22T05:37:55.501Z,79.08
2018-06-22T05:38:55.499Z,78.22
2018-06-22T05:39:55.495Z,77.84
2018-06-22T05:40:55.486Z,77.74
2018-06-22T05:41:55.483Z,77.65
2018-06-22T05:42:55.479Z,77.17
2018-06-22T05:43:55.473Z,77.36
2018-06-22T05:44:55.469Z,76.69
2018-06-22T05:45:55.464Z,75.83
2018-06-22T05:46:55.460Z,77.26
2018-06-22T05:47:55.455Z,77.45
2018-06-22T05:48:55.449Z,77.84
2018-06-22T05:49:55.447Z,77.55
2018-06-22T05:50:55.497Z,77.36
2018-06-22T05:51:55.436Z,77.08
2018-06-22T05:52:55.432Z,77.01
2018-06-22T05:53:55.426Z,76.45
2018-06-22T05:54:55.423Z,75.01
2018-06-22T05:55:55.420Z,74.53
2018-06-22T05:56:55.415Z,74.44
2018-06-22T05:57:55.408Z,73.77
2018-06-22T05:58:55.405Z,73.67
2018-06-22T05:59:55.399Z,73.77
2018-06-22T06:00:55.392Z,74.05
2018-06-22T06:01:55.389Z,73.67
2018-06-22T06:02:55.381Z,74.73
2018-06-22T06:03:55.378Z,74.05
2018-06-22T06:04:55.375Z,74.15
2018-06-22T06:05:55.368Z,74.05
2018-06-22T06:06:55.364Z,72.91
2018-06-22T06:07:55.359Z,73.19
2018-06-22T06:08:55.396Z,72.53
2018-06-22T06:09:55.347Z,72.62
2018-06-22T06:10:55.342Z,72.53
2018-06-22T06:11:55.338Z,72.28
2018-06-22T06:12:55.333Z,72.28
2018-06-22T06:13:55.327Z,72.28
2018-06-22T06:14:55.320Z,71.70
2018-06-22T06:15:55.340Z,72.08
2018-06-22T06:16:55.313Z,72.18
2018-06-22T06:17:55.309Z,71.89
2018-06-22T06:18:55.303Z,71.89
2018-06-22T06:19:55.299Z,72.28
2018-06-22T06:20:55.293Z,71.32
2018-06-22T06:21:55.288Z,71.42
2018-06-22T06:22:55.283Z,70.56
2018-06-22T06:23:55.280Z,70.75
2018-06-22T06:24:55.319Z,71.32
2018-06-22T06:25:55.269Z,71.16
2018-06-22T06:26:55.264Z,71.16
2018-06-22T06:27:55.259Z,70.97
2018-06-22T06:28:55.254Z,70.07
2018-06-22T06:29:55.248Z,70.36
2018-06-22T06:30:55.244Z,70.11
2018-06-22T06:31:55.239Z,70.78
2018-06-22T06:32:55.237Z,69.25
2018-06-22T06:33:55.232Z,69.92
2018-06-22T06:34:55.225Z,69.25
2018-06-22T06:35:55.221Z,69.35
2018-06-22T06:36:55.217Z,69.25
2018-06-22T06:37:55.212Z,68.96
2018-06-22T06:38:55.205Z,69.73
2018-06-22T06:39:55.202Z,69.15
2018-06-22T06:40:55.197Z,69.44
2018-06-22T06:41:55.283Z,68.90
2018-06-22T06:42:55.187Z,68.33
2018-06-22T06:43:55.182Z,68.39
2018-06-22T06:44:55.178Z,68.96
2018-06-22T06:45:55.173Z,69.15
2018-06-22T06:46:55.170Z,69.35
2018-06-22T06:47:55.165Z,69.06
2018-06-22T06:48:55.160Z,68.84
2018-06-22T06:49:55.157Z,69.31
2018-06-22T06:50:55.152Z,69.79
2018-06-22T06:51:55.152Z,69.79
2018-06-22T06:52:55.143Z,70.07
2018-06-22T06:53:55.137Z,69.70
2018-06-22T06:54:55.135Z,69.98
2018-06-22T06:55:55.131Z,69.41
2018-06-22T06:56:55.203Z,69.41
2018-06-22T06:57:55.120Z,69.31
2018-06-22T06:58:55.116Z,69.50
2018-06-22T06:59:55.111Z,69.41
2018-06-22T07:00:55.109Z,69.12
2018-06-22T07:01:55.106Z,69.12
2018-06-22T07:02:55.097Z,69.41
2018-06-22T07:03:55.093Z,68.35
2018-06-22T07:04:55.088Z,68.93
2018-06-22T07:05:55.086Z,67.97
2018-06-22T07:06:55.079Z,67.43
2018-06-22T07:07:55.074Z,67.14
2018-06-22T07:08:55.075Z,67.05
2018-06-22T07:09:55.064Z,65.81
2018-06-22T07:10:55.061Z,65.04
2018-06-22T07:11:55.058Z,64.75
2018-06-22T07:12:55.055Z,64.56
2018-06-22T07:13:55.047Z,64.09
2018-06-22T07:14:55.042Z,64.18
2018-06-22T07:15:55.041Z,63.99
2018-06-22T07:16:55.046Z,64.75
2018-06-22T07:17:55.032Z,64.75
2018-06-22T07:18:55.026Z,64.56
2018-06-22T07:19:55.022Z,64.88
2018-06-22T07:20:55.017Z,64.40
2018-06-22T07:21:55.013Z,64.79
2018-06-22T07:22:55.008Z,63.35
2018-06-22T07:23:55.005Z,63.32
2018-06-22T07:24:55.004Z,63.64
2018-06-22T07:25:54.997Z,64.12
2018-06-22T07:26:54.994Z,64.02
2018-06-22T07:27:54.988Z,64.12
2018-06-22T07:28:54.983Z,64.02
2018-06-22T07:29:54.981Z,63.64
2018-06-22T07:30:54.977Z,64.31
2018-06-22T07:31:54.974Z,64.40
2018-06-22T07:32:54.968Z,64.88
2018-06-22T07:33:54.966Z,64.88
2018-06-22T07:34:54.964Z,65.36
2018-06-22T07:35:54.980Z,64.69
2018-06-22T07:36:54.954Z,64.75
2018-06-22T07:37:54.951Z,64.85
2018-06-22T07:38:54.948Z,64.59
2018-06-22T07:39:54.949Z,64.09
2018-06-22T07:40:54.940Z,64.12
2018-06-22T07:41:54.937Z,64.02
2018-06-22T07:42:54.938Z,64.75
2018-06-22T07:43:55.054Z,64.85
2018-06-22T07:44:54.927Z,66.28
2018-06-22T07:45:54.923Z,65.52
2018-06-22T07:46:54.919Z,65.04
2018-06-22T07:47:54.915Z,65.61
2018-06-22T07:48:54.911Z,65.14
2018-06-22T07:49:54.974Z,65.71
2018-06-22T07:50:54.902Z,66.57
2018-06-22T07:51:54.899Z,66.86
2018-06-22T07:52:54.896Z,66.38
2018-06-22T07:53:54.893Z,66.76
2018-06-22T07:54:54.885Z,66.19
2018-06-22T07:55:54.884Z,66.09
2018-06-22T07:56:54.882Z,66.00
2018-06-22T07:57:54.926Z,66.09
2018-06-22T07:58:54.873Z,66.19
2018-06-22T07:59:54.870Z,66.76
2018-06-22T08:00:54.864Z,65.71
2018-06-22T08:01:54.863Z,66.00
2018-06-22T08:02:54.859Z,65.90
2018-06-22T08:03:54.862Z,66.57
2018-06-22T08:04:54.857Z,66.80
2018-06-22T08:05:54.847Z,66.67
2018-06-22T08:06:54.845Z,67.14
2018-06-22T08:07:54.841Z,66.57
2018-06-22T08:08:54.837Z,67.91
2018-06-22T08:09:54.831Z,68.10
2018-06-22T08:10:54.828Z,67.82
2018-06-22T08:11:54.826Z,68.39
2018-06-22T08:12:54.823Z,67.43
2018-06-22T08:13:54.818Z,67.72
2018-06-22T08:14:54.813Z,67.91
2018-06-22T08:15:54.824Z,67.82
2018-06-22T08:16:54.873Z,68.10
2018-06-22T08:17:54.805Z,68.10
2018-06-22T08:18:54.803Z,68.29
2018-06-22T08:19:54.797Z,67.72
2018-06-22T08:20:54.795Z,68.20
2018-06-22T08:21:54.791Z,68.87
2018-06-22T08:22:54.789Z,69.54
2018-06-22T08:23:54.785Z,68.96
2018-06-22T08:24:54.779Z,69.15
2018-06-22T08:25:54.780Z,69.35
2018-06-22T08:26:54.769Z,69.15
2018-06-22T08:27:54.772Z,68.87
2018-06-22T08:28:54.768Z,69.06
2018-06-22T08:29:54.764Z,68.96
2018-06-22T08:30:54.760Z,68.39
2018-06-22T08:31:54.758Z,68.29
2018-06-22T08:32:54.754Z,68.49
2018-06-22T08:33:54.748Z,68.01
2018-06-22T08:34:54.755Z,68.01
2018-06-22T08:35:54.757Z,67.82
2018-06-22T08:36:54.739Z,68.39
2018-06-22T08:37:54.736Z,68.68
2018-06-22T08:38:54.733Z,68.39
2018-06-22T08:39:54.733Z,68.49
2018-06-22T08:40:54.726Z,68.01
2018-06-22T08:41:54.759Z,69.15
2018-06-22T08:42:54.741Z,68.96
2018-06-22T08:43:54.715Z,68.49
2018-06-22T08:44:54.712Z,67.91
2018-06-22T08:45:54.708Z,68.01
2018-06-22T08:46:54.705Z,68.10
2018-06-22T08:47:54.702Z,68.39
2018-06-22T08:48:54.751Z,68.58
2018-06-22T08:49:54.704Z,68.58
2018-06-22T08:50:54.696Z,68.29
2018-06-22T08:51:54.690Z,67.72
2018-06-22T08:52:54.682Z,67.14
2018-06-22T08:53:54.679Z,67.63
2018-06-22T08:54:54.679Z,68.39
2018-06-22T08:55:54.681Z,68.39
2018-06-22T08:56:54.672Z,69.15
2018-06-22T08:57:54.670Z,69.35
2018-06-22T08:58:54.668Z,69.35
2018-06-22T08:59:54.664Z,69.06
2018-06-22T09:00:54.660Z,68.39
2018-06-22T09:01:54.659Z,68.77
2018-06-22T09:02:54.655Z,67.82
2018-06-22T09:03:54.651Z,68.39
2018-06-22T09:04:54.648Z,69.06
2018-06-22T09:05:54.645Z,68.29
2018-06-22T09:06:54.642Z,68.29
2018-06-22T09:07:54.640Z,68.77
2018-06-22T09:08:54.635Z,68.49
2018-06-22T09:09:54.632Z,68.29
2018-06-22T09:10:54.629Z,68.01
2018-06-22T09:11:54.629Z,67.34
2018-06-22T09:12:54.622Z,67.24
2018-06-22T09:13:54.620Z,67.05
2018-06-22T09:14:54.616Z,66.76
2018-06-22T09:15:54.613Z,66.96
2018-06-22T09:16:54.608Z,67.24
2018-06-22T09:17:54.605Z,66.57
2018-06-22T09:18:54.600Z,67.14
2018-06-22T09:19:54.597Z,66.76
2018-06-22T09:20:54.595Z,66.76
2018-06-22T09:21:54.591Z,66.96
2018-06-22T09:22:54.589Z,67.14
2018-06-22T09:23:54.585Z,66.86
2018-06-22T09:24:54.583Z,67.24
2018-06-22T09:25:54.576Z,67.82
2018-06-22T09:26:54.573Z,66.86
2018-06-22T09:27:54.569Z,67.05
2018-06-22T09:28:54.565Z,66.67
2018-06-22T09:29:54.560Z,66.76
2018-06-22T09:30:54.558Z,66.86
2018-06-22T09:31:54.554Z,66.96
2018-06-22T09:32:54.548Z,67.24
2018-06-22T09:33:54.546Z,66.28
2018-06-22T09:34:54.544Z,66.47
2018-06-22T09:35:54.541Z,67.91
2018-06-22T09:36:54.567Z,66.67
2018-06-22T09:37:54.531Z,67.91
2018-06-22T09:38:54.530Z,67.72
2018-06-22T09:39:54.525Z,67.53
2018-06-22T09:40:54.521Z,66.67
2018-06-22T09:41:54.519Z,67.14
2018-06-22T09:42:54.589Z,67.05
2018-06-22T09:43:54.510Z,68.10
2018-06-22T09:44:54.507Z,66.61
2018-06-22T09:45:54.502Z,66.96
2018-06-22T09:46:54.500Z,66.70
2018-06-22T09:47:54.497Z,65.84
2018-06-22T09:48:54.492Z,66.76
2018-06-22T09:49:54.496Z,66.80
2018-06-22T09:50:54.486Z,66.09
2018-06-22T09:51:54.486Z,66.51
2018-06-22T09:52:54.482Z,67.18
2018-06-22T09:53:54.475Z,66.51
2018-06-22T09:54:54.470Z,66.32
2018-06-22T09:55:54.473Z,66.99
2018-06-22T09:56:54.465Z,66.32
2018-06-22T09:57:54.460Z,67.18
2018-06-22T09:58:54.457Z,66.99
2018-06-22T09:59:54.453Z,66.22
2018-06-22T10:00:54.446Z,65.49
2018-06-22T10:01:54.446Z,66.03
2018-06-22T10:02:54.440Z,65.20
2018-06-22T10:03:54.437Z,65.11
2018-06-22T10:04:54.434Z,64.92
2018-06-22T10:05:54.458Z,64.92
2018-06-22T10:06:54.428Z,64.92
2018-06-22T10:07:54.429Z,64.28
2018-06-22T10:08:54.423Z,63.99
2018-06-22T10:09:54.417Z,63.70
2018-06-22T10:10:54.417Z,63.22
2018-06-22T10:11:54.410Z,63.51
2018-06-22T10:12:54.407Z,63.99
2018-06-22T10:13:54.403Z,64.47
2018-06-22T10:14:54.405Z,64.22
2018-06-22T10:15:54.400Z,63.73
2018-06-22T10:16:54.394Z,63.32
2018-06-22T10:17:54.389Z,63.22
2018-06-22T10:18:54.389Z,63.99
2018-06-22T10:19:54.385Z,64.37
2018-06-22T10:20:54.382Z,65.33
2018-06-22T10:21:54.380Z,65.71
2018-06-22T10:22:54.378Z,65.52
2018-06-22T10:23:54.373Z,65.81
2018-06-22T10:24:54.369Z,65.39
2018-06-22T10:25:54.368Z,66.35
2018-06-22T10:26:54.405Z,66.74
2018-06-22T10:27:54.365Z,66.16
2018-06-22T10:28:54.360Z,67.11
2018-06-22T10:29:54.353Z,67.02
2018-06-22T10:30:54.353Z,66.35
2018-06-22T10:31:54.350Z,66.83
2018-06-22T10:32:54.351Z,66.06
2018-06-22T10:33:54.370Z,66.54
2018-06-22T10:34:54.340Z,66.54
2018-06-22T10:35:54.339Z,66.54
2018-06-22T10:36:54.338Z,67.02
2018-06-22T10:37:54.331Z,66.25
2018-06-22T10:38:54.330Z,65.42
2018-06-22T10:39:54.326Z,65.91
2018-06-22T10:40:54.323Z,65.52
2018-06-22T10:41:54.320Z,65.14
2018-06-22T10:42:54.322Z,64.95
2018-06-22T10:43:54.314Z,65.81
2018-06-22T10:44:54.310Z,65.33
2018-06-22T10:45:54.356Z,64.66
2018-06-22T10:46:54.307Z,64.09
2018-06-22T10:47:54.306Z,63.83
2018-06-22T10:48:54.299Z,63.45
2018-06-22T10:49:54.300Z,63.64
2018-06-22T10:50:54.295Z,63.64
2018-06-22T10:51:54.292Z,63.92
2018-06-22T10:52:54.289Z,63.26
2018-06-22T10:53:54.285Z,63.73
2018-06-22T10:54:54.284Z,63.54
2018-06-22T10:55:54.282Z,63.83
2018-06-22T10:56:54.284Z,64.50
2018-06-22T10:57:54.276Z,63.54
2018-06-22T10:58:54.271Z,63.35
2018-06-22T10:59:54.367Z,63.13
2018-06-22T11:00:54.266Z,63.35
2018-06-22T11:01:54.261Z,63.45
2018-06-22T11:02:54.269Z,64.50
2018-06-22T11:03:54.257Z,63.83
2018-06-22T11:04:54.255Z,63.73
2018-06-22T11:05:54.253Z,63.64
2018-06-22T11:06:54.248Z,64.40
2018-06-22T11:07:54.250Z,64.12
2018-06-22T11:08:54.243Z,64.43
2018-06-22T11:09:54.242Z,63.16
2018-06-22T11:10:54.240Z,63.35
2018-06-22T11:11:54.240Z,63.19
2018-06-22T11:12:54.238Z,62.42
2018-06-22T11:13:54.249Z,63.29
2018-06-22T11:14:54.234Z,61.66
2018-06-22T11:15:54.229Z,61.46
2018-06-22T11:16:54.274Z,62.13
2018-06-22T11:17:54.224Z,62.04
2018-06-22T11:18:54.225Z,61.56
2018-06-22T11:19:54.219Z,62.13
2018-06-22T11:20:54.216Z,62.90
2018-06-22T11:21:54.214Z,62.36
2018-06-22T11:22:54.217Z,61.40
2018-06-22T11:23:54.212Z,60.70
2018-06-22T11:24:54.301Z,61.27
2018-06-22T11:25:54.214Z,63.38
2018-06-22T11:26:54.205Z,61.85
2018-06-22T11:27:54.207Z,62.52
2018-06-22T11:28:54.205Z,62.16
2018-06-22T11:29:54.199Z,61.69
2018-06-22T11:30:54.216Z,61.02
2018-06-22T11:31:54.196Z,60.95
2018-06-22T11:32:54.197Z,60.85
2018-06-22T11:33:54.200Z,59.67
2018-06-22T11:34:54.196Z,60.72
2018-06-22T11:35:54.335Z,62.36
2018-06-22T11:36:54.192Z,61.37
2018-06-22T11:37:54.188Z,63.00
2018-06-22T11:38:54.186Z,62.26
2018-06-22T11:39:54.190Z,61.52
2018-06-22T11:40:54.184Z,61.62
2018-06-22T11:41:54.184Z,61.43
2018-06-22T11:42:54.182Z,61.62
2018-06-22T11:43:54.181Z,62.29
2018-06-22T11:44:54.180Z,62.29
2018-06-22T11:45:54.180Z,61.72
2018-06-22T11:46:54.180Z,60.78
2018-06-22T11:47:54.180Z,60.11
2018-06-22T11:48:54.176Z,60.40
2018-06-22T11:49:54.177Z,60.11
2018-06-22T11:50:54.181Z,59.66
2018-06-22T11:51:54.184Z,59.19
2018-06-22T11:52:54.176Z,59.32
2018-06-22T11:53:54.180Z,60.02
2018-06-22T11:54:54.178Z,59.54
2018-06-22T11:55:54.180Z,60.57
2018-06-22T11:56:54.176Z,59.25
2018-06-22T11:57:54.179Z,58.39
2018-06-22T11:58:54.177Z,58.10
2018-06-22T11:59:54.179Z,58.26
2018-06-22T12:00:54.178Z,57.97
2018-06-22T12:01:54.180Z,59.12
2018-06-22T12:02:54.179Z,58.17
2018-06-22T12:03:54.180Z,58.91
2018-06-22T12:04:54.181Z,60.25
2018-06-22T12:05:54.184Z,59.67
2018-06-22T12:06:54.180Z,59.19
2018-06-22T12:07:54.176Z,60.02
2018-06-22T12:08:54.176Z,58.67
2018-06-22T12:09:54.175Z,59.12
2018-06-22T12:10:54.177Z,58.64
2018-06-22T12:11:54.175Z,59.09
2018-06-22T12:12:54.174Z,61.02
2018-06-22T12:13:54.174Z,60.57
2018-06-22T12:14:54.173Z,59.99
2018-06-22T12:15:54.173Z,58.87
2018-06-22T12:16:54.170Z,58.55
2018-06-22T12:17:54.172Z,58.84
2018-06-22T12:18:54.173Z,59.51
2018-06-22T12:19:54.170Z,59.54
2018-06-22T12:20:54.175Z,58.39
2018-06-22T12:21:54.199Z,58.67
2018-06-22T12:22:54.168Z,59.73
2018-06-22T12:23:54.170Z,58.55
2018-06-22T12:24:54.168Z,58.74
2018-06-22T12:25:54.166Z,59.41
2018-06-22T12:26:54.164Z,59.12
2018-06-22T12:27:54.170Z,59.73
2018-06-22T12:28:54.163Z,59.34
2018-06-22T12:29:54.162Z,60.21
2018-06-22T12:30:54.162Z,58.87
2018-06-22T12:31:54.170Z,59.12
2018-06-22T12:32:54.199Z,59.32
2018-06-22T12:33:54.162Z,60.28
2018-06-22T12:34:54.159Z,60.47
2018-06-22T12:35:54.181Z,59.99
2018-06-22T12:36:54.160Z,60.57
2018-06-22T12:37:54.158Z,60.85
2018-06-22T12:38:54.156Z,59.99
2018-06-22T12:39:54.159Z,60.85
2018-06-22T12:40:54.157Z,61.05
2018-06-22T12:41:54.157Z,60.02
2018-06-22T12:42:54.156Z,59.73
2018-06-22T12:43:54.155Z,59.06
2018-06-22T12:44:54.202Z,58.80
2018-06-22T12:45:54.155Z,58.32
2018-06-22T12:46:54.154Z,57.45
2018-06-22T12:47:54.153Z,57.36
2018-06-22T12:48:54.189Z,56.68
2018-06-22T12:49:54.153Z,56.59
2018-06-22T12:50:54.156Z,56.98
2018-06-22T12:51:54.160Z,56.18
2018-06-22T12:52:54.196Z,57.04